Time;durP1;ratioP1;P1;durP2;ratioP2;P2;SDS_P1;SDS_P2;PMS_P1;PMS_P2;Temp;Humidity;BMP_temperature;BMP_pressure;BME280_temperature;BME280_humidity;BME280_pressure;Samples;Min_cycle;Max_cycle;Signal;HPM_P1;HPM_P2
2021/04/02 00:00:50;;;;;;;0.93;0.93;;;;;;;5.50;64.85;101226.59;5092100;28;20284;-69
2021/04/02 00:03:20;;;;;;;0.77;0.63;;;;;;;5.53;63.67;101272.66;5089735;28;20196;-70
2021/04/02 00:05:48;;;;;;;1.23;1.10;;;;;;;5.38;63.42;101269.69;5092123;28;20230;-70
2021/04/02 00:08:16;;;;;;;0.40;0.40;;;;;;;5.26;63.19;101271.91;5088791;28;20227;-69
2021/04/02 00:10:48;;;;;;;0.30;0.30;;;;;;;5.22;63.26;101267.63;5086788;28;20187;-69
2021/04/02 00:13:18;;;;;;;0.43;0.40;;;;;;;5.27;63.40;101243.50;5089826;28;20227;-67
2021/04/02 00:15:46;;;;;;;0.30;0.30;;;;;;;5.18;63.19;101238.50;5090983;28;20197;-66
2021/04/02 00:18:14;;;;;;;0.40;0.40;;;;;;;5.44;64.10;101256.16;5090132;28;20250;-67
2021/04/02 00:20:41;;;;;;;0.27;0.27;;;;;;;5.47;64.48;101253.38;5089167;28;20273;-67
2021/04/02 00:23:10;;;;;;;0.10;0.10;;;;;;;5.29;64.46;101205.22;5089023;28;20255;-69
2021/04/02 00:25:38;;;;;;;0.30;0.30;;;;;;;5.55;64.67;101251.28;5089218;28;20277;-69
2021/04/02 00:28:07;;;;;;;0.50;0.40;;;;;;;5.59;65.92;101239.59;5091636;28;20675;-69
2021/04/02 00:30:41;;;;;;;0.30;0.30;;;;;;;5.60;66.10;101242.19;5087811;28;20306;-69
2021/04/02 00:33:10;;;;;;;0.20;0.20;;;;;;;5.63;66.24;101241.19;5088661;28;20204;-68
2021/04/02 00:35:38;;;;;;;0.10;0.10;;;;;;;5.64;66.57;101234.06;5088297;28;20300;-68
2021/04/02 00:38:07;;;;;;;0.30;0.30;;;;;;;5.64;66.22;101228.75;5085871;28;20232;-69
2021/04/02 00:40:42;;;;;;;0.40;0.40;;;;;;;5.60;66.07;101220.88;5089844;28;20203;-68
2021/04/02 00:43:10;;;;;;;0.17;0.17;;;;;;;5.66;66.31;101225.09;5087890;28;20215;-68
2021/04/02 00:45:37;;;;;;;1.40;0.43;;;;;;;5.47;65.65;101221.41;5088731;28;20189;-69
2021/04/02 00:48:06;;;;;;;0.30;0.30;;;;;;;5.44;65.33;101224.19;5086547;28;20293;-66
2021/04/02 00:50:39;;;;;;;2.00;0.50;;;;;;;5.38;64.83;101203.13;5085136;28;20534;-66
2021/04/02 00:53:06;;;;;;;0.47;0.47;;;;;;;5.29;65.82;101186.59;5086230;28;20184;-66
2021/04/02 00:55:34;;;;;;;0.27;0.27;;;;;;;5.29;65.93;101172.41;5089297;28;20246;-66
2021/04/02 00:58:03;;;;;;;0.10;0.10;;;;;;;5.55;66.13;101212.22;5088793;28;20213;-66
2021/04/02 01:00:31;;;;;;;0.20;0.20;;;;;;;5.57;66.65;101198.81;5089319;28;20279;-66
2021/04/02 01:02:59;;;;;;;0.40;0.10;;;;;;;5.61;66.20;101211.09;5088392;28;20279;-66
2021/04/02 01:05:29;;;;;;;0.77;0.37;;;;;;;5.57;65.08;101196.16;5086019;28;20207;-66
2021/04/02 01:08:00;;;;;;;0.30;0.30;;;;;;;5.45;64.50;101201.94;5085243;28;20706;-66
2021/04/02 01:10:28;;;;;;;1.30;0.50;;;;;;;5.50;65.24;101197.31;5086658;28;20631;-66
2021/04/02 01:12:57;;;;;;;0.23;0.23;;;;;;;5.53;65.36;101197.22;5089357;28;20250;-67
2021/04/02 01:15:32;;;;;;;0.10;0.10;;;;;;;5.56;65.88;101194.44;5084008;28;20212;-66
2021/04/02 01:18:07;;;;;;;0.47;0.40;;;;;;;5.32;66.09;101139.47;5087583;28;20283;-67
2021/04/02 01:20:35;;;;;;;0.30;0.30;;;;;;;5.53;65.95;101170.56;5086728;28;20205;-67
2021/04/02 01:23:09;;;;;;;0.87;0.87;;;;;;;5.58;66.29;101179.25;5088727;28;20215;-69
2021/04/02 01:25:50;;;;;;;434.50;215.47;;;;;;;5.59;66.31;101186.31;5086069;28;20208;-66
2021/04/02 01:28:46;;;;;;;40.07;18.43;;;;;;;5.58;66.42;101177.44;5085497;28;20201;-66
2021/04/02 01:31:15;;;;;;;3.17;2.07;;;;;;;5.56;66.02;101170.44;5082534;28;20201;-66
2021/04/02 01:33:44;;;;;;;2.30;1.70;;;;;;;5.49;66.27;101174.25;5087517;28;20231;-67
2021/04/02 01:36:14;;;;;;;0.43;0.43;;;;;;;5.42;66.51;101170.97;5081973;28;20193;-67
2021/04/02 01:38:43;;;;;;;1.40;1.30;;;;;;;5.14;66.70;101133.06;5083889;28;20238;-66
2021/04/02 01:41:12;;;;;;;3.67;2.87;;;;;;;5.36;66.96;101165.03;5087837;28;20709;-66
2021/04/02 01:43:44;;;;;;;1.37;1.27;;;;;;;5.38;66.99;101161.38;5085222;28;20742;-66
2021/04/02 01:46:15;;;;;;;1.77;0.80;;;;;;;5.52;66.86;101177.69;5086178;28;20203;-69
2021/04/02 01:48:46;;;;;;;1.10;1.00;;;;;;;5.54;66.52;101169.66;5121251;27;20686;-67
2021/04/02 01:51:14;;;;;;;0.30;0.30;;;;;;;5.46;66.66;101166.41;5088110;28;20193;-66
2021/04/02 01:53:45;;;;;;;0.20;0.20;;;;;;;5.17;66.67;101116.97;5088075;28;20204;-69
2021/04/02 01:56:15;;;;;;;0.20;0.20;;;;;;;5.39;66.77;101148.94;5087525;28;20292;-67
2021/04/02 01:58:45;;;;;;;1.27;1.17;;;;;;;5.45;67.33;101152.22;5087745;28;20224;-69
2021/04/02 02:01:16;;;;;;;4.33;3.87;;;;;;;5.50;67.02;101149.38;5086833;28;20226;-69
2021/04/02 02:03:49;;;;;;;0.73;0.43;;;;;;;5.45;66.91;101148.69;5087952;28;20224;-69
2021/04/02 02:06:18;;;;;;;0.57;0.50;;;;;;;5.37;66.70;101142.81;5087491;28;20210;-67
2021/04/02 02:09:28;;;;;;;0.50;0.40;;;;;;;5.37;66.79;101159.66;5046677;28;20206;-69
2021/04/02 02:12:03;;;;;;;1.30;0.53;;;;;;;5.18;66.67;101114.25;5046911;28;20252;-69
2021/04/02 02:14:42;;;;;;;0.50;0.50;;;;;;;5.35;67.21;101150.00;5069253;28;20227;-67
2021/04/02 02:17:20;;;;;;;0.30;0.30;;;;;;;5.22;66.87;101123.88;5084100;28;20208;-67
2021/04/02 02:19:49;;;;;;;0.43;0.30;;;;;;;5.31;66.74;101143.94;5082946;28;20736;-69
2021/04/02 02:22:19;;;;;;;0.30;0.30;;;;;;;5.23;66.52;101141.56;5086168;28;20208;-69
2021/04/02 02:25:04;;;;;;;0.23;0.23;;;;;;;5.22;67.04;101144.28;5088082;28;20197;-69
2021/04/02 02:27:33;;;;;;;1.47;0.60;;;;;;;5.20;67.15;101141.69;5089595;28;20228;-69
2021/04/02 02:30:01;;;;;;;0.20;0.20;;;;;;;5.03;67.26;101112.19;5086355;28;20211;-70
2021/04/02 02:32:31;;;;;;;0.40;0.40;;;;;;;5.13;66.94;101129.53;5088171;28;20308;-69
2021/04/02 02:34:59;;;;;;;0.40;0.40;;;;;;;5.11;67.48;101133.19;5086891;28;20224;-66
2021/04/02 02:37:27;;;;;;;0.30;0.30;;;;;;;5.06;67.14;101128.03;5085808;28;20209;-69
2021/04/02 02:39:54;;;;;;;0.20;0.20;;;;;;;5.01;67.68;101118.50;5087402;28;20205;-69
2021/04/02 02:42:22;;;;;;;1.40;0.40;;;;;;;4.92;67.59;101103.78;5088099;28;20255;-66
2021/04/02 02:44:51;;;;;;;0.53;0.50;;;;;;;5.03;67.86;101114.00;5086886;28;20200;-66
2021/04/02 02:47:18;;;;;;;0.40;0.40;;;;;;;4.99;67.27;101113.25;5085809;28;20713;-67
2021/04/02 02:49:55;;;;;;;0.37;0.37;;;;;;;4.98;67.19;101109.72;5086856;28;20357;-66
2021/04/02 02:52:23;;;;;;;0.30;0.30;;;;;;;4.92;67.44;101109.97;5088076;28;20555;-67
2021/04/02 02:54:54;;;;;;;0.33;0.33;;;;;;;4.94;67.73;101102.78;5088427;28;20224;-66
2021/04/02 02:57:24;;;;;;;0.73;0.40;;;;;;;4.96;67.68;101097.41;5088289;28;20286;-67
2021/04/02 02:59:53;;;;;;;0.30;0.30;;;;;;;4.96;68.10;101092.06;5086143;28;20228;-66
2021/04/02 03:02:22;;;;;;;0.57;0.30;;;;;;;4.93;67.88;101094.84;5091153;28;20196;-66
2021/04/02 03:04:50;;;;;;;0.47;0.47;;;;;;;4.86;68.12;101090.69;5105104;28;20261;-66
2021/04/02 03:07:21;;;;;;;0.27;0.27;;;;;;;4.85;68.06;101094.25;5088915;28;20232;-66
2021/04/02 03:09:51;;;;;;;124.80;65.43;;;;;;;4.61;68.02;101066.84;5091698;28;20203;-66
2021/04/02 03:12:19;;;;;;;21.57;10.03;;;;;;;4.70;68.15;101087.75;5093140;28;20192;-66
2021/04/02 03:14:52;;;;;;;2.73;2.53;;;;;;;4.68;68.12;101085.16;5088450;28;20218;-66
2021/04/02 03:17:22;;;;;;;3.50;2.47;;;;;;;4.52;68.26;101051.19;5081510;28;20629;-66
2021/04/02 03:19:51;;;;;;;8.77;3.97;;;;;;;4.64;68.22;101062.25;5076999;28;20205;-66
2021/04/02 03:22:28;;;;;;;1.60;1.50;;;;;;;4.65;69.03;101058.69;5089192;28;20261;-66
2021/04/02 03:25:10;;;;;;;1.80;1.70;;;;;;;4.73;68.54;101068.16;5087231;28;20195;-66
2021/04/02 03:27:46;;;;;;;1.40;1.30;;;;;;;4.72;68.18;101067.28;5086400;28;20200;-66
2021/04/02 03:30:20;;;;;;;0.60;0.60;;;;;;;4.75;68.28;101055.66;5084408;28;20193;-67
2021/04/02 03:32:52;;;;;;;0.50;0.50;;;;;;;4.29;68.10;100986.50;5086373;28;20637;-67
2021/04/02 03:35:20;;;;;;;0.50;0.50;;;;;;;4.70;68.45;101052.31;5088638;28;20217;-66
2021/04/02 03:37:50;;;;;;;0.60;0.57;;;;;;;4.73;68.89;101049.53;5090385;28;20250;-67
2021/04/02 03:40:21;;;;;;;0.90;0.90;;;;;;;4.75;68.84;101042.34;5085752;28;20228;-66
2021/04/02 03:42:53;;;;;;;2.57;0.70;;;;;;;4.73;68.84;101045.06;5089479;28;20655;-66
2021/04/02 03:45:23;;;;;;;0.77;0.77;;;;;;;4.72;68.62;101031.84;5088867;28;20231;-69
2021/04/02 03:47:54;;;;;;;0.87;0.80;;;;;;;4.65;68.61;101016.13;5087295;28;20213;-68
2021/04/02 03:50:26;;;;;;;0.50;0.50;;;;;;;4.67;68.94;101024.03;5088324;28;20580;-69
2021/04/02 03:53:04;;;;;;;0.60;0.53;;;;;;;4.49;68.42;101020.28;5088107;28;20204;-69
2021/04/02 03:55:33;;;;;;;0.43;0.43;;;;;;;4.48;68.85;101028.31;5089555;28;20234;-69
2021/04/02 03:58:02;;;;;;;2.13;0.77;;;;;;;4.47;68.86;101022.13;5088792;28;20204;-69
2021/04/02 04:00:39;;;;;;;0.40;0.40;;;;;;;4.45;68.50;101017.81;5090624;28;20675;-69
2021/04/02 04:03:14;;;;;;;0.30;0.30;;;;;;;4.39;69.00;101021.56;5091099;28;20192;-69
2021/04/02 04:05:43;;;;;;;0.60;0.60;;;;;;;4.32;68.79;101023.59;5089637;28;20197;-69
2021/04/02 04:08:14;;;;;;;0.57;0.50;;;;;;;4.08;68.72;100991.75;5086224;28;20282;-69
2021/04/02 04:10:45;;;;;;;1.07;0.57;;;;;;;4.28;68.93;101037.03;5088628;28;20254;-69
2021/04/02 04:13:15;;;;;;;0.40;0.40;;;;;;;4.26;68.78;101044.19;5089104;28;20238;-69
2021/04/02 04:15:46;;;;;;;0.47;0.43;;;;;;;3.85;69.39;100966.88;5088975;28;20717;-69
2021/04/02 04:18:18;;;;;;;0.50;0.50;;;;;;;4.27;69.44;101041.47;5088686;28;20193;-69
2021/04/02 04:20:46;;;;;;;0.80;0.40;;;;;;;4.23;69.41;101033.69;5088269;28;20253;-69
2021/04/02 04:23:23;;;;;;;0.67;0.67;;;;;;;4.16;69.10;101032.19;5088828;28;20692;-69
2021/04/02 04:25:54;;;;;;;0.37;0.37;;;;;;;4.04;68.95;101013.13;5091060;28;20544;-69
2021/04/02 04:28:23;;;;;;;0.67;0.60;;;;;;;4.01;69.22;101023.84;5087835;28;20279;-69
2021/04/02 04:30:54;;;;;;;0.40;0.40;;;;;;;4.04;69.17;101029.06;5089552;28;20196;-69
2021/04/02 04:33:23;;;;;;;0.60;0.60;;;;;;;4.05;69.51;101029.94;5088334;28;20224;-70
2021/04/02 04:35:52;;;;;;;0.40;0.40;;;;;;;4.07;69.27;101036.06;5091545;28;20597;-69
2021/04/02 04:38:23;;;;;;;2.23;0.87;;;;;;;4.03;69.52;101032.63;5088873;28;20192;-69
2021/04/02 04:40:52;;;;;;;0.80;0.50;;;;;;;4.05;69.21;101030.78;5088044;28;20617;-69
2021/04/02 04:43:21;;;;;;;1.53;0.70;;;;;;;4.08;69.50;101026.28;5087729;28;20280;-69
2021/04/02 04:45:48;;;;;;;0.63;0.50;;;;;;;3.91;70.15;101026.88;5087648;28;20672;-69
2021/04/02 04:48:16;;;;;;;0.60;0.50;;;;;;;3.98;nan;101013.34;5080961;28;20204;-69
2021/04/02 04:50:43;;;;;;;1.60;0.60;;;;;;;3.98;70.67;101008.03;5087448;28;20272;-67
2021/04/02 04:53:14;;;;;;;1.10;0.60;;;;;;;4.15;70.65;101019.81;5086016;28;20207;-68
2021/04/02 04:55:44;;;;;;;0.50;0.50;;;;;;;4.17;70.66;101020.63;5085854;28;20690;-68
2021/04/02 04:58:15;;;;;;;0.60;0.53;;;;;;;4.17;70.65;101017.97;5088514;28;20201;-67
2021/04/02 05:00:44;;;;;;;0.50;0.50;;;;;;;3.99;70.88;100985.84;5087917;28;20284;-68
2021/04/02 05:03:15;;;;;;;0.60;0.60;;;;;;;4.28;71.20;101018.44;5088121;28;20750;-67
2021/04/02 05:05:44;;;;;;;0.53;0.50;;;;;;;4.39;71.51;101018.03;5087161;28;20208;-68
2021/04/02 05:08:16;;;;;;;0.57;0.57;;;;;;;4.47;71.00;101022.13;5082313;28;20722;-68
2021/04/02 05:10:46;;;;;;;3.60;0.60;;;;;;;4.58;71.12;101019.91;5084792;28;20207;-67
2021/04/02 05:13:14;;;;;;;764.67;499.40;;;;;;;4.57;70.95;100996.91;5089424;28;20534;-68
2021/04/02 05:15:43;;;;;;;218.60;100.87;;;;;;;4.81;70.73;101005.72;5085965;28;20212;-68
2021/04/02 05:18:13;;;;;;;20.13;9.63;;;;;;;4.95;70.52;101016.69;5084116;28;20651;-68
2021/04/02 05:20:43;;;;;;;6.53;3.80;;;;;;;5.10;70.73;101015.19;5088188;28;20200;-68
2021/04/02 05:23:16;;;;;;;2.40;1.97;;;;;;;5.26;70.82;100999.47;5087260;28;20204;-68
2021/04/02 05:25:44;;;;;;;4.13;2.70;;;;;;;5.51;70.52;101007.28;5076460;28;20292;-68
2021/04/02 05:28:11;;;;;;;2.60;2.20;;;;;;;5.72;70.72;101001.03;5088072;28;20651;-68
2021/04/02 05:30:38;;;;;;;2.70;2.27;;;;;;;5.63;70.05;100937.50;5087663;28;20207;-68
2021/04/02 05:33:06;;;;;;;4.13;3.00;;;;;;;6.29;69.92;101010.06;5090475;28;20731;-68
2021/04/02 05:35:33;;;;;;;4.10;2.43;;;;;;;6.57;69.17;101009.66;5085680;28;20215;-68
2021/04/02 05:38:01;;;;;;;3.17;2.37;;;;;;;6.86;68.85;101005.59;5086289;28;20592;-68
2021/04/02 05:40:29;;;;;;;2.13;1.70;;;;;;;7.03;68.39;101010.97;5075197;28;20562;-68
2021/04/02 05:43:02;;;;;;;1.67;0.80;;;;;;;7.21;68.08;101003.00;5083479;28;20335;-68
2021/04/02 05:45:30;;;;;;;3.97;3.33;;;;;;;7.38;67.01;101011.06;5087865;28;20247;-68
2021/04/02 05:48:01;;;;;;;4.67;1.33;;;;;;;7.56;67.26;101009.25;5083703;28;20227;-68
2021/04/02 05:50:31;;;;;;;1.13;0.70;;;;;;;7.64;65.30;101012.38;5087339;28;20508;-68
2021/04/02 05:53:04;;;;;;;0.93;0.57;;;;;;;7.62;65.61;101008.91;5089650;28;20206;-68
2021/04/02 05:55:34;;;;;;;0.57;0.57;;;;;;;7.62;64.69;101009.78;5089521;28;20214;-68
2021/04/02 05:58:03;;;;;;;0.40;0.40;;;;;;;7.41;64.94;100977.03;5084737;28;20298;-68
2021/04/02 06:00:32;;;;;;;2.30;0.57;;;;;;;7.63;65.24;101007.97;5087974;28;20196;-68
2021/04/02 06:02:59;;;;;;;3.93;0.47;;;;;;;7.56;65.37;101011.91;5087965;28;20198;-68
2021/04/02 06:05:27;;;;;;;0.73;0.60;;;;;;;7.60;65.49;101019.69;5088147;28;20683;-68
2021/04/02 06:07:57;;;;;;;0.87;0.60;;;;;;;7.23;65.29;100953.03;5087368;28;20850;-68
2021/04/02 06:10:24;;;;;;;0.63;0.63;;;;;;;7.53;65.51;101002.25;5085651;28;20191;-68
2021/04/02 06:12:52;;;;;;;0.73;0.70;;;;;;;7.48;65.29;101006.97;5080674;28;20517;-68
2021/04/02 06:15:22;;;;;;;0.67;0.60;;;;;;;7.44;65.62;101008.94;5077730;28;20261;-68
2021/04/02 06:18:00;;;;;;;2.27;0.90;;;;;;;7.41;65.56;101011.75;5075004;28;20282;-67
2021/04/02 06:20:29;;;;;;;1.13;0.70;;;;;;;7.41;65.27;101008.22;5080113;28;20228;-67
2021/04/02 06:23:07;;;;;;;1.03;0.73;;;;;;;7.44;65.66;101022.28;5079310;28;20687;-67
2021/04/02 06:25:37;;;;;;;0.70;0.70;;;;;;;7.39;64.35;101020.81;5083561;28;20207;-67
2021/04/02 06:28:12;;;;;;;0.47;0.47;;;;;;;7.20;63.67;101019.97;5088023;28;20360;-67
2021/04/02 06:30:42;;;;;;;1.50;0.53;;;;;;;7.28;63.90;101004.41;5095256;28;20205;-66
2021/04/02 06:33:10;;;;;;;0.40;0.40;;;;;;;7.28;63.57;101004.41;5077184;28;20606;-67
2021/04/02 06:35:41;;;;;;;0.40;0.40;;;;;;;7.28;63.61;101005.28;5079753;28;20220;-67
2021/04/02 06:38:09;;;;;;;0.73;0.60;;;;;;;7.29;63.06;101006.16;5077847;28;20471;-67
2021/04/02 06:40:37;;;;;;;0.37;0.33;;;;;;;7.39;63.47;100999.44;5081118;28;20246;-69
2021/04/02 06:43:05;;;;;;;0.30;0.30;;;;;;;7.45;62.33;101009.78;5074509;28;20290;-69
2021/04/02 06:45:33;;;;;;;0.73;0.50;;;;;;;7.44;63.19;100997.38;5077120;28;20678;-71
2021/04/02 06:48:15;;;;;;;0.37;0.37;;;;;;;7.67;62.84;101013.13;5083234;28;20574;-70
2021/04/02 06:50:42;;;;;;;0.63;0.57;;;;;;;7.96;64.05;101013.38;5085900;28;20302;-70
2021/04/02 06:53:12;;;;;;;0.93;0.57;;;;;;;8.12;61.70;101011.63;5081676;28;20229;-70
2021/04/02 06:55:40;;;;;;;0.50;0.50;;;;;;;8.39;61.42;101002.16;5084357;28;20267;-70
2021/04/02 06:58:11;;;;;;;0.60;0.60;;;;;;;8.51;61.60;100986.38;5086358;28;20205;-70
2021/04/02 07:00:40;;;;;;;0.60;0.60;;;;;;;8.70;60.59;101005.81;5088393;28;20704;-71
2021/04/02 07:03:09;;;;;;;0.23;0.23;;;;;;;8.73;59.11;101005.66;5085050;28;20196;-71
2021/04/02 07:05:39;;;;;;;0.43;0.43;;;;;;;8.84;59.86;101008.56;5082207;28;20268;-71
2021/04/02 07:08:08;;;;;;;1.03;0.53;;;;;;;8.87;60.38;101007.53;5082136;28;20297;-70
2021/04/02 07:10:37;;;;;;;0.27;0.20;;;;;;;8.67;59.26;101001.50;5070427;28;20204;-71
2021/04/02 07:13:08;;;;;;;0.33;0.33;;;;;;;8.48;56.56;101010.63;5077995;28;20195;-72
2021/04/02 07:15:37;;;;;;;0.40;0.40;;;;;;;8.45;58.24;101010.78;5078934;28;20312;-69
2021/04/02 07:18:06;;;;;;;0.40;0.40;;;;;;;8.36;58.58;101001.47;5074491;28;20192;-69
2021/04/02 07:20:34;;;;;;;0.30;0.30;;;;;;;8.32;57.23;101000.75;5077036;28;20195;-69
2021/04/02 07:23:03;;;;;;;0.30;0.30;;;;;;;8.36;59.07;100988.94;5078536;28;20204;-69
2021/04/02 07:25:31;;;;;;;0.30;0.23;;;;;;;8.21;58.25;100986.19;5075679;28;20273;-70
2021/04/02 07:27:59;;;;;;;0.60;0.40;;;;;;;8.29;58.77;100992.88;5075030;28;20761;-70
2021/04/02 07:30:31;;;;;;;0.60;0.47;;;;;;;8.41;58.77;100994.03;5081027;28;20221;-70
2021/04/02 07:33:01;;;;;;;0.73;0.53;;;;;;;8.47;59.36;101003.53;5080239;28;20952;-69
2021/04/02 07:35:29;;;;;;;0.40;0.40;;;;;;;8.45;58.16;101003.63;5072460;28;20229;-70
2021/04/02 07:37:57;;;;;;;2.17;1.17;;;;;;;8.60;59.51;101000.13;5078846;28;20209;-70
2021/04/02 07:40:27;;;;;;;0.80;0.80;;;;;;;8.80;59.74;100993.63;5080113;28;20197;-70
2021/04/02 07:42:56;;;;;;;1.33;1.17;;;;;;;8.83;55.84;100990.78;5071488;28;20245;-70
2021/04/02 07:45:26;;;;;;;1.77;1.40;;;;;;;8.91;55.70;100988.56;5077843;28;20198;-70
2021/04/02 07:47:56;;;;;;;0.63;0.47;;;;;;;8.94;55.59;100993.75;5083260;28;20224;-72
2021/04/02 07:50:35;;;;;;;0.60;0.60;;;;;;;9.10;57.62;100992.84;5075220;28;20606;-70
2021/04/02 07:53:02;;;;;;;0.90;0.90;;;;;;;9.00;56.73;100966.59;5074059;28;20194;-70
2021/04/02 07:55:30;;;;;;;0.20;0.20;;;;;;;9.20;55.38;100989.56;5080960;28;20222;-71
2021/04/02 07:58:00;;;;;;;0.30;0.30;;;;;;;9.36;55.51;100984.16;5084794;28;20531;-71
2021/04/02 08:00:29;;;;;;;1.07;0.60;;;;;;;9.22;55.03;100944.78;5080890;28;20200;-71
2021/04/02 08:03:07;;;;;;;3.37;1.70;;;;;;;9.59;55.14;100991.69;5082012;28;20197;-71
2021/04/02 08:05:34;;;;;;;0.70;0.70;;;;;;;9.52;53.93;100974.25;5083752;28;20406;-71
2021/04/02 08:08:02;;;;;;;1.87;0.50;;;;;;;9.56;50.03;100970.44;5075100;28;20289;-71
2021/04/02 08:10:30;;;;;;;0.83;0.83;;;;;;;9.63;52.44;100970.94;5081859;28;20272;-72
2021/04/02 08:12:57;;;;;;;0.77;0.70;;;;;;;9.67;50.83;100976.97;5081179;28;20687;-72
2021/04/02 08:15:24;;;;;;;0.20;0.20;;;;;;;9.64;50.64;100965.47;5082751;28;20230;-68
2021/04/02 08:17:55;;;;;;;0.33;0.33;;;;;;;9.63;52.27;100938.75;5079891;28;20232;-67
2021/04/02 08:20:23;;;;;;;0.30;0.30;;;;;;;10.00;53.45;100961.50;5074662;28;20204;-71
2021/04/02 08:22:52;;;;;;;0.50;0.50;;;;;;;10.25;54.00;100964.41;5081582;28;20205;-73
2021/04/02 08:25:21;;;;;;;1.03;0.90;;;;;;;10.32;51.84;100961.34;5084836;28;20283;-71
2021/04/02 08:27:49;;;;;;;0.80;0.80;;;;;;;10.32;51.61;100958.66;5077250;28;20758;-68
2021/04/02 08:30:17;;;;;;;3.40;0.77;;;;;;;10.54;52.56;100959.00;5081142;28;20242;-68
2021/04/02 08:32:46;;;;;;;0.70;0.60;;;;;;;10.57;50.44;100961.50;5082380;28;20687;-69
2021/04/02 08:35:15;;;;;;;0.60;0.60;;;;;;;10.61;51.93;100952.28;5073691;28;20217;-67
2021/04/02 08:37:56;;;;;;;0.40;0.40;;;;;;;10.78;50.91;100951.19;5077550;28;20286;-67
2021/04/02 08:40:23;;;;;;;0.67;0.40;;;;;;;10.85;50.13;100942.63;5082606;28;20733;-74
2021/04/02 08:42:52;;;;;;;0.43;0.43;;;;;;;10.91;52.01;100935.13;5087784;28;20520;-67
2021/04/02 08:45:20;;;;;;;0.67;0.67;;;;;;;10.96;51.49;100930.31;5091259;28;20231;-67
2021/04/02 08:47:48;;;;;;;0.50;0.50;;;;;;;10.73;50.29;100887.03;5090089;28;20663;-67
2021/04/02 08:50:15;;;;;;;0.47;0.43;;;;;;;11.14;50.91;100934.47;5092006;28;20236;-66
2021/04/02 08:52:43;;;;;;;0.73;0.20;;;;;;;11.25;49.86;100934.59;5089485;28;20198;-67
2021/04/02 08:55:10;;;;;;;1.10;0.53;;;;;;;11.27;50.35;100934.47;5086891;28;20212;-67
2021/04/02 08:57:38;;;;;;;0.50;0.40;;;;;;;11.33;50.20;100926.88;5091128;28;20201;-66
2021/04/02 09:00:09;;;;;;;0.60;0.60;;;;;;;11.36;49.57;100932.06;5086448;28;20247;-67
2021/04/02 09:02:37;;;;;;;0.47;0.47;;;;;;;11.26;48.95;100930.94;5083446;28;20232;-66
2021/04/02 09:05:06;;;;;;;1.13;0.50;;;;;;;11.30;48.56;100935.13;5077272;28;20213;-66
2021/04/02 09:07:37;;;;;;;0.60;0.30;;;;;;;11.14;47.38;100921.03;5077371;28;20233;-66
2021/04/02 09:10:12;;;;;;;0.30;0.30;;;;;;;11.23;45.89;100925.78;5085038;28;20519;-66
2021/04/02 09:12:44;;;;;;;0.47;0.47;;;;;;;11.53;48.80;100922.81;5083386;28;20201;-67
2021/04/02 09:15:18;;;;;;;0.40;0.40;;;;;;;11.68;47.41;100915.53;5077145;28;21026;-69
2021/04/02 09:17:46;;;;;;;1.03;0.27;;;;;;;11.81;47.99;100894.88;5078454;28;20274;-68
2021/04/02 09:20:15;;;;;;;0.57;0.30;;;;;;;11.69;42.68;100903.81;5081708;28;20214;-72
2021/04/02 09:22:43;;;;;;;0.30;0.30;;;;;;;11.76;42.33;100908.63;5078066;28;20744;-72
2021/04/02 09:25:14;;;;;;;0.30;0.20;;;;;;;11.76;44.40;100919.41;5077257;28;20657;-72
2021/04/02 09:27:41;;;;;;;0.30;0.30;;;;;;;11.67;43.45;100919.19;5078869;28;20234;-72
2021/04/02 09:30:09;;;;;;;3.20;0.20;;;;;;;11.48;41.91;100922.28;5083334;28;20250;-72
2021/04/02 09:32:37;;;;;;;1.70;0.40;;;;;;;11.28;41.04;100912.00;5087352;28;20691;-71
2021/04/02 09:35:06;;;;;;;0.10;0.10;;;;;;;11.23;39.28;100901.56;5087007;28;20228;-72
2021/04/02 09:37:34;;;;;;;2.10;0.90;;;;;;;11.36;42.79;100904.31;5084628;28;20193;-71
2021/04/02 09:40:06;;;;;;;0.70;0.70;;;;;;;11.61;42.71;100898.94;5089143;28;20197;-72
2021/04/02 09:42:36;;;;;;;0.40;0.40;;;;;;;11.35;39.93;100895.38;5087932;28;20263;-72
2021/04/02 09:45:05;;;;;;;0.57;0.40;;;;;;;11.28;41.43;100888.69;5086785;28;20658;-71
2021/04/02 09:47:40;;;;;;;0.60;0.30;;;;;;;11.38;41.95;100889.78;5087131;28;20192;-71
2021/04/02 09:50:09;;;;;;;1.60;0.63;;;;;;;11.47;43.40;100883.75;5087809;28;20677;-72
2021/04/02 09:52:39;;;;;;;0.57;0.37;;;;;;;11.47;44.17;100858.69;5089733;28;20200;-72
2021/04/02 09:55:07;;;;;;;0.37;0.37;;;;;;;11.76;43.52;100888.94;5087151;28;20261;-72
2021/04/02 09:57:35;;;;;;;4.57;0.57;;;;;;;11.58;43.53;100888.38;5089863;28;20284;-73
2021/04/02 10:00:05;;;;;;;2.03;0.50;;;;;;;11.41;40.17;100886.88;5089014;28;20288;-73
2021/04/02 10:02:35;;;;;;;0.50;0.40;;;;;;;11.39;39.23;100870.00;5087582;28;20197;-73
2021/04/02 10:05:04;;;;;;;1.03;0.30;;;;;;;11.54;42.60;100875.25;5088870;28;20209;-73
2021/04/02 10:07:31;;;;;;;2.43;0.30;;;;;;;11.68;43.28;100872.50;5085503;28;20236;-73
2021/04/02 10:09:58;;;;;;;0.40;0.33;;;;;;;11.48;41.82;100863.97;5085080;28;20714;-73
2021/04/02 10:12:26;;;;;;;2.67;0.20;;;;;;;11.51;42.16;100857.50;5087152;28;20206;-73
2021/04/02 10:14:53;;;;;;;0.30;0.30;;;;;;;11.64;42.78;100868.28;5086869;28;20259;-73
2021/04/02 10:17:25;;;;;;;0.20;0.20;;;;;;;11.72;43.66;100868.59;5088659;28;20204;-73
2021/04/02 10:19:52;;;;;;;0.50;0.50;;;;;;;11.61;42.19;100868.47;5086268;28;20264;-71
2021/04/02 10:22:20;;;;;;;1.00;0.37;;;;;;;11.54;42.96;100860.00;5087050;28;20206;-71
2021/04/02 10:24:47;;;;;;;0.90;0.40;;;;;;;11.55;41.59;100866.22;5088749;28;20603;-72
2021/04/02 10:27:15;;;;;;;0.40;0.40;;;;;;;11.60;42.21;100859.56;5087741;28;20287;-73
2021/04/02 10:29:43;;;;;;;2.33;0.30;;;;;;;11.20;40.57;100834.59;5086959;28;20657;-71
2021/04/02 10:32:10;;;;;;;0.30;0.20;;;;;;;11.50;41.62;100853.09;5085207;28;20599;-71
2021/04/02 10:34:37;;;;;;;0.87;0.40;;;;;;;11.59;42.41;100851.59;5087595;28;20202;-71
2021/04/02 10:37:04;;;;;;;4.23;0.20;;;;;;;11.02;41.54;100780.28;5080005;28;20214;-71
2021/04/02 10:39:33;;;;;;;0.20;0.20;;;;;;;11.51;40.15;100853.00;5075800;28;20193;-71
2021/04/02 10:42:01;;;;;;;1.47;0.40;;;;;;;11.49;40.85;100856.75;5078670;28;20246;-71
2021/04/02 10:44:28;;;;;;;0.30;0.30;;;;;;;11.25;41.58;100816.31;5082315;28;20930;-70
2021/04/02 10:46:56;;;;;;;1.40;0.40;;;;;;;11.54;42.06;100853.75;5078749;28;20850;-70
2021/04/02 10:49:23;;;;;;;0.20;0.20;;;;;;;11.51;39.46;100866.44;5083311;28;21119;-70
2021/04/02 10:51:50;;;;;;;0.93;0.63;;;;;;;11.41;37.67;100865.38;5083337;28;20198;-70
2021/04/02 10:54:18;;;;;;;3.63;0.40;;;;;;;11.47;39.77;100843.44;5086388;28;20204;-70
2021/04/02 10:56:46;;;;;;;0.40;0.20;;;;;;;11.56;40.18;100854.50;5084063;28;20275;-70
2021/04/02 10:59:13;;;;;;;0.30;0.30;;;;;;;11.81;40.38;100857.22;5083156;28;20522;-70
2021/04/02 11:01:40;;;;;;;0.47;0.47;;;;;;;11.86;40.54;100855.06;5086793;28;20654;-70
2021/04/02 11:04:08;;;;;;;0.67;0.37;;;;;;;11.80;42.68;100863.56;5088944;28;20208;-70
2021/04/02 11:06:35;;;;;;;201.13;113.77;;;;;;;11.58;40.71;100849.88;5084627;28;20663;-70
2021/04/02 11:09:03;;;;;;;1.23;1.13;;;;;;;11.69;39.85;100861.63;5086015;28;21537;-70
2021/04/02 11:11:30;;;;;;;0.93;0.53;;;;;;;11.96;41.33;100850.75;5084004;28;20217;-70
2021/04/02 11:13:58;;;;;;;0.80;0.80;;;;;;;12.32;41.21;100854.44;5089897;28;20199;-71
2021/04/02 11:16:26;;;;;;;0.50;0.50;;;;;;;12.47;38.19;100857.81;5082878;28;20224;-69
2021/04/02 11:18:53;;;;;;;0.40;0.40;;;;;;;12.62;39.19;100862.09;5088630;28;20520;-71
2021/04/02 11:21:20;;;;;;;5.37;1.83;;;;;;;12.81;38.43;100859.72;5081607;28;20207;-71
2021/04/02 11:23:47;;;;;;;1.80;1.70;;;;;;;13.04;37.31;100855.28;5092532;28;20590;-71
2021/04/02 11:26:15;;;;;;;2.23;1.60;;;;;;;13.32;37.64;100851.38;5091370;28;20190;-70
2021/04/02 11:28:42;;;;;;;1.10;1.10;;;;;;;13.22;38.84;100861.16;5092425;28;20342;-71
2021/04/02 11:31:10;;;;;;;0.50;0.50;;;;;;;13.40;38.09;100853.47;5092253;28;20213;-70
2021/04/02 11:33:37;;;;;;;0.47;0.47;;;;;;;13.41;37.08;100836.28;5091237;28;20199;-70
2021/04/02 11:36:05;;;;;;;0.57;0.57;;;;;;;13.49;39.42;100850.06;5092075;28;20570;-70
2021/04/02 11:38:34;;;;;;;0.70;0.70;;;;;;;13.42;38.30;100857.75;5084593;28;20256;-69
2021/04/02 11:41:01;;;;;;;1.70;1.13;;;;;;;13.16;37.29;100851.63;5088231;28;20533;-71